Randolph, VA (23962)

8:08 AM EDT on July 27, 2016 (GMT -0400)
The Cove | | Change Station

Elev 478 ft 36.94 °N, 78.79 °W | Updated 1 second ago

Overcast
Overcast
74.3 °F
Feels Like 72 °F
N
0.0
Wind Variable Wind from West
Gusts 53.4 mph

Today
High -- | Low -- °F
--% Chance of Precip.
Yesterday
High -- | Low -- °F
Precip. -- in
Pressure 29.99 in
Visibility 3.0 miles
Clouds Overcast 200 ft
Heat Index 72 °F
Dew Point 72 °F
Humidity 92%
Rainfall 0.00 in
Snow Depth Not available.
6:16 AM 8:25 PM
Last Quarter, 44% visible
METAR KLYH 271154Z 00000KT 3SM BR OVC002 22/22 A3002 RMK AO2 SLP156 70322 T02220222 10222 20211 53008
Pressure 29.99 in
Visibility 3.0 miles
Clouds Overcast 200 ft
Heat Index 72 °F
Dew Point 72 °F
Humidity 92%
Rainfall 0.00 in
Snow Depth Not available.
6:16 AM 8:25 PM
Last Quarter, 44% visible
METAR KLYH 271154Z 00000KT 3SM BR OVC002 22/22 A3002 RMK AO2 SLP156 70322 T02220222 10222 20211 53008

10-Day Weather Forecast

Almanac

Astronomy

Jul. 27, 2016 Rise Set
Actual Time
Civil Twilight
Nautical Twilight
Astronomical Twilight
Moon
Length of Visible Light
Length of Day
Tomorrow will be .
, % of the Moon is Illuminated

Today's Extremes

State Highs State Lows

Community

WunderPhotos

Upload Photos

1,927,836 photos uploaded!

WunderBlog® & News

Nearby

Air Quality

  Air Quality AQ Index Pollutant
Not available.

Snow Depth

Station Depth Elevation

Earthquake Activity

City Distance Mag. Time & Date
Minimum magnitude displayed is 2.5.

Coastal Water Temperatures

Place Temperature

Stations

Nearby Weather Stations

Station Location Temp. Windchill Dew Point Humidity Wind Precip. Elev Updated Type
                   

Watches & Warnings

There are currently no watches in effect.